createdAt,value
2023-01-13T06:33:25.915Z,100703.09
2023-01-13T06:35:57.342Z,100711.91
2023-01-13T06:38:27.898Z,100717.78
2023-01-13T06:40:55.122Z,100705.84
2023-01-13T06:43:22.489Z,100697.22
2023-01-13T06:45:52.394Z,100712.03
2023-01-13T06:48:23.390Z,100708.06
2023-01-13T06:50:50.251Z,100706.34
2023-01-13T06:53:17.128Z,100697.56
2023-01-13T06:55:44.089Z,100694.00
2023-01-13T06:58:11.229Z,100700.19
2023-01-13T07:00:38.469Z,100680.47
2023-01-13T07:03:07.301Z,100703.41
2023-01-13T07:05:36.078Z,100697.97
2023-01-13T07:08:02.932Z,100703.84
2023-01-13T07:10:30.504Z,100685.47
2023-01-13T07:13:00.484Z,100670.44
2023-01-13T07:15:27.474Z,100687.38
2023-01-13T07:17:54.287Z,100686.53
2023-01-13T07:20:21.229Z,100702.25
2023-01-13T07:22:53.784Z,100710.22
2023-01-13T07:25:20.757Z,100687.47
2023-01-13T07:27:47.610Z,100709.84
2023-01-13T07:30:14.950Z,100700.53
2023-01-13T07:32:41.769Z,100703.84
2023-01-13T07:35:08.726Z,100708.94
2023-01-13T07:37:38.364Z,100692.25
2023-01-13T07:40:07.423Z,100718.66
2023-01-13T07:42:34.424Z,100726.47
2023-01-13T07:45:01.212Z,100714.16
2023-01-13T07:47:28.170Z,100721.97
2023-01-13T07:49:55.208Z,100721.81
2023-01-13T07:52:22.277Z,100714.19
2023-01-13T07:54:49.131Z,100710.91
2023-01-13T07:57:17.704Z,100716.66
2023-01-13T08:00:02.460Z,100709.97
2023-01-13T08:02:31.888Z,100730.31
2023-01-13T08:04:58.931Z,100716.84
2023-01-13T08:07:28.019Z,100703.44
2023-01-13T08:10:01.818Z,100700.06
2023-01-13T08:12:34.104Z,100734.84
2023-01-13T08:15:07.189Z,100722.91
2023-01-13T08:17:34.228Z,100736.69
2023-01-13T08:20:01.599Z,100720.00
2023-01-13T08:22:42.776Z,100726.19
2023-01-13T08:25:13.020Z,100739.84
2023-01-13T08:34:22.109Z,100757.06
2023-01-13T08:43:13.707Z,100748.94
2023-01-13T08:46:12.488Z,100754.16
2023-01-13T08:48:57.425Z,100733.50
2023-01-13T08:51:38.055Z,100739.44
2023-01-13T08:57:28.649Z,100748.72
2023-01-13T09:00:09.231Z,100765.06
2023-01-13T09:02:38.883Z,100758.88
2023-01-13T09:05:25.487Z,100761.97
2023-01-13T09:08:05.007Z,100752.91
2023-01-13T09:10:49.681Z,100765.94
2023-01-13T09:15:55.324Z,100748.66
2023-01-13T09:19:02.036Z,100728.38
2023-01-13T09:30:10.253Z,100712.72
2023-01-13T09:32:49.589Z,100727.91
2023-01-13T09:35:18.701Z,100730.84
2023-01-13T09:41:06.567Z,100731.66
2023-01-13T09:43:39.276Z,100735.22
2023-01-13T09:46:16.329Z,100712.28
2023-01-13T09:48:43.331Z,100708.06
2023-01-13T09:51:18.894Z,100720.31
2023-01-13T09:53:53.541Z,100709.06
2023-01-13T09:56:20.519Z,100709.69
2023-01-13T09:58:48.418Z,100706.53
2023-01-13T10:01:28.250Z,100692.69
2023-01-13T10:03:55.556Z,100677.84
2023-01-13T10:06:29.767Z,100690.31
2023-01-13T10:08:58.458Z,100690.94
2023-01-13T10:11:32.368Z,100660.56
2023-01-13T10:14:02.380Z,100680.34
2023-01-13T10:16:37.461Z,100672.16
2023-01-13T10:19:12.451Z,100670.41
2023-01-13T10:22:09.498Z,100660.19
2023-01-13T10:24:55.443Z,100662.41
2023-01-13T10:27:30.258Z,100670.41
2023-01-13T10:30:19.567Z,100628.44
2023-01-13T10:32:50.699Z,100627.88
2023-01-13T10:38:41.471Z,100641.59
2023-01-13T10:41:18.659Z,100615.03
2023-01-13T10:43:57.382Z,100626.03
2023-01-13T10:46:53.172Z,100622.50
2023-01-13T10:49:53.559Z,100598.03
2023-01-13T10:52:38.508Z,100594.47
2023-01-13T10:55:36.002Z,100608.09
2023-01-13T10:58:13.379Z,100601.06
2023-01-13T11:00:40.738Z,100583.19
2023-01-13T11:03:15.865Z,100594.69
2023-01-13T11:05:53.747Z,100574.75
2023-01-13T11:08:23.292Z,100578.41
2023-01-13T11:10:53.838Z,100570.00
2023-01-13T11:13:28.115Z,100556.94
2023-01-13T11:16:00.900Z,100559.59
2023-01-13T11:18:38.059Z,100546.91
2023-01-13T11:21:12.093Z,100535.13
2023-01-13T11:24:07.940Z,100553.00
2023-01-13T11:26:41.438Z,100546.34
2023-01-13T11:29:15.031Z,100530.56
2023-01-13T11:31:47.514Z,100528.75
2023-01-13T11:34:25.292Z,100511.09
2023-01-13T11:37:02.059Z,100508.34
2023-01-13T11:39:49.632Z,100508.22
2023-01-13T11:42:23.905Z,100505.41
2023-01-13T11:45:03.783Z,100500.19
2023-01-13T11:47:32.598Z,100497.41
2023-01-13T11:50:01.758Z,100505.78
2023-01-13T11:52:47.516Z,100518.53
2023-01-13T11:55:26.077Z,100499.75
2023-01-13T11:58:12.050Z,100492.16
2023-01-13T12:01:07.468Z,100495.06
2023-01-13T12:03:42.071Z,100491.81
2023-01-13T12:06:19.914Z,100472.91
2023-01-13T12:09:08.330Z,100481.38
2023-01-13T12:11:46.983Z,100471.59
2023-01-13T12:14:29.262Z,100462.47
2023-01-13T12:16:56.412Z,100476.97
2023-01-13T12:19:25.808Z,100466.19
2023-01-13T12:22:07.915Z,100463.28
2023-01-13T12:24:43.162Z,100451.34
2023-01-13T12:27:15.841Z,100455.47
2023-01-13T12:29:45.074Z,100461.97
2023-01-13T12:32:16.579Z,100474.56
2023-01-13T12:34:53.521Z,100472.72
2023-01-13T12:37:29.199Z,100463.84
2023-01-13T12:40:19.304Z,100433.38
2023-01-13T12:42:52.706Z,100449.91
2023-01-13T12:45:26.199Z,100451.94
2023-01-13T12:47:53.488Z,100462.53
2023-01-13T12:50:41.717Z,100451.72
2023-01-13T12:53:31.503Z,100445.47
2023-01-13T12:56:30.175Z,100437.88
2023-01-13T12:59:42.069Z,100437.88
2023-01-13T13:02:35.936Z,100435.16
2023-01-13T13:05:38.635Z,100440.19
2023-01-13T13:08:14.581Z,100437.47
2023-01-13T13:10:47.816Z,100425.97
2023-01-13T13:13:41.144Z,100442.16
2023-01-13T13:16:57.143Z,100433.97
2023-01-13T13:19:47.195Z,100430.47
2023-01-13T13:22:36.699Z,100429.19
2023-01-13T13:25:21.918Z,100446.44
2023-01-13T13:28:07.861Z,100432.34
2023-01-13T13:30:37.383Z,100424.50
2023-01-13T13:33:20.804Z,100417.72
2023-01-13T13:36:09.905Z,100434.50
2023-01-13T13:38:58.431Z,100406.25
2023-01-13T13:41:26.504Z,100417.03
2023-01-13T13:43:53.556Z,100418.78
2023-01-13T13:46:27.252Z,100422.50
2023-01-13T13:48:55.223Z,100424.16
2023-01-13T13:51:27.994Z,100433.38
2023-01-13T13:53:55.750Z,100428.09
2023-01-13T13:56:26.174Z,100435.41
2023-01-13T13:58:56.294Z,100432.56
2023-01-13T14:01:28.630Z,100425.13
2023-01-13T14:04:11.390Z,100422.97
2023-01-13T14:06:38.469Z,100432.56
2023-01-13T14:09:16.730Z,100420.41
2023-01-13T14:11:43.487Z,100435.41
2023-01-13T14:14:14.293Z,100436.81
2023-01-13T14:16:42.577Z,100427.44
2023-01-13T14:19:26.533Z,100455.94
2023-01-13T14:21:53.803Z,100440.84
2023-01-13T14:24:20.892Z,100447.69
2023-01-13T14:26:47.628Z,100460.53
2023-01-13T14:29:19.315Z,100449.31
2023-01-13T14:31:48.287Z,100461.84
2023-01-13T14:34:32.095Z,100455.66
2023-01-13T14:37:00.395Z,100458.22
2023-01-13T14:39:35.545Z,100443.63
2023-01-13T14:42:02.992Z,100455.28
2023-01-13T14:44:32.202Z,100460.81
2023-01-13T14:47:05.602Z,100451.25
2023-01-13T14:49:38.559Z,100447.09
2023-01-13T14:52:15.668Z,100449.94
2023-01-13T14:57:33.103Z,100461.38
2023-01-13T15:00:04.684Z,100467.72
2023-01-13T15:02:40.908Z,100460.78
2023-01-13T15:05:47.138Z,100470.59
2023-01-13T15:08:34.798Z,100471.94
2023-01-13T15:11:03.917Z,100474.91
2023-01-13T15:13:39.654Z,100471.66
2023-01-13T15:16:20.344Z,100487.63
2023-01-13T15:18:49.004Z,100474.44
2023-01-13T15:21:15.991Z,100467.00
2023-01-13T15:23:43.621Z,100475.16
2023-01-13T15:26:17.730Z,100461.56
2023-01-13T15:28:44.682Z,100480.34
2023-01-13T15:31:11.613Z,100480.41
2023-01-13T15:33:38.571Z,100469.72
2023-01-13T15:36:20.197Z,100466.44
2023-01-13T15:38:47.204Z,100470.56
2023-01-13T15:41:17.320Z,100489.94
2023-01-13T15:43:52.559Z,100475.72
2023-01-13T15:46:20.704Z,100496.06
2023-01-13T15:48:49.055Z,100507.78
2023-01-13T15:51:23.523Z,100497.16
2023-01-13T15:53:50.890Z,100475.72
2023-01-13T15:56:23.689Z,100476.94
2023-01-13T15:58:50.983Z,100490.75
2023-01-13T16:01:18.365Z,100481.06
2023-01-13T16:03:45.729Z,100476.28
2023-01-13T16:06:16.807Z,100480.53
2023-01-13T16:08:45.505Z,100484.97
2023-01-13T16:11:13.595Z,100472.84
2023-01-13T16:13:40.945Z,100473.19
2023-01-13T16:16:21.049Z,100480.13
2023-01-13T16:18:48.819Z,100475.09
2023-01-13T16:21:19.343Z,100483.56
